Terminal Aerodrome Forecast
Issued by NWS

Home | Current Version | Previous Version | Text Only | Print | Product List | Glossary On
Versions: 1 2 3 4 5 6 7 8 9 10 11 12 13
000
FTUS44 KCRP 282048 AAA
TAFALI
TAF AMD
KALI 282048Z 2821/2918 14016G24KT P6SM VCTS SCT040CB BKN120
      TEMPO 2821/2823 VRB20G35KT 4SM TSRA BKN030CB
     FM290200 14010KT P6SM FEW015 BKN250
     FM290800 14004KT P6SM BKN015 OVC250
      TEMPO 2909/2913 SCT015 BKN250
     FM291500 16010KT P6SM SCT025 BKN150=

USA.gov is the U.S. government's official web portal to all federal, state and local government web resources and services.